createdAt,value
2023-03-31T00:02:32.174Z,22.50
2023-03-31T00:05:27.694Z,22.40
2023-03-31T00:08:22.497Z,22.30
2023-03-31T00:11:16.745Z,22.20
2023-03-31T00:14:11.573Z,22.10
2023-03-31T00:17:05.804Z,22.10
2023-03-31T00:20:01.609Z,22.10
2023-03-31T00:22:55.945Z,22.10
2023-03-31T00:25:50.076Z,22.10
2023-03-31T00:28:44.166Z,22.00
2023-03-31T00:31:40.039Z,21.90
2023-03-31T00:34:34.275Z,21.90
2023-03-31T00:37:28.937Z,22.00
2023-03-31T00:40:23.300Z,22.10
2023-03-31T00:43:30.753Z,22.10
2023-03-31T00:46:32.415Z,22.20
2023-03-31T00:49:52.918Z,22.20
2023-03-31T00:52:48.871Z,22.20
2023-03-31T00:55:49.274Z,22.20
2023-03-31T00:58:47.202Z,22.20
2023-03-31T01:01:45.658Z,22.20
2023-03-31T01:04:52.238Z,22.30
2023-03-31T01:07:50.065Z,22.30
2023-03-31T01:10:51.055Z,22.30
2023-03-31T01:13:47.236Z,22.40
2023-03-31T01:16:41.488Z,22.40
2023-03-31T01:20:13.934Z,22.50
2023-03-31T03:51:10.878Z,21.80
2023-03-31T03:54:05.080Z,21.80
2023-03-31T03:57:00.249Z,22.10
2023-03-31T03:59:54.434Z,22.40
2023-03-31T04:02:48.730Z,22.80
2023-03-31T04:05:42.942Z,23.10
2023-03-31T04:08:38.138Z,23.30
2023-03-31T04:11:32.465Z,23.50
2023-03-31T04:14:28.866Z,23.60
2023-03-31T04:17:34.081Z,23.70
2023-03-31T04:20:28.951Z,23.80
2023-03-31T04:23:24.692Z,23.90
2023-03-31T04:26:32.015Z,23.90
2023-03-31T04:29:27.956Z,23.90
2023-03-31T04:32:23.325Z,24.00
2023-03-31T04:35:19.122Z,24.00
2023-03-31T04:38:13.230Z,24.10
2023-03-31T04:41:07.904Z,24.00
2023-03-31T04:44:02.160Z,24.00
2023-03-31T04:46:56.884Z,23.90
2023-03-31T04:49:51.053Z,23.90
2023-03-31T04:52:45.254Z,24.00
2023-03-31T04:55:39.430Z,24.10
2023-03-31T04:58:33.555Z,24.10
2023-03-31T05:01:27.777Z,24.10
2023-03-31T05:04:22.335Z,24.10
2023-03-31T05:07:16.501Z,24.00
2023-03-31T05:10:10.953Z,23.80
2023-03-31T05:13:05.525Z,23.70
2023-03-31T05:15:59.670Z,23.80
2023-03-31T05:18:53.921Z,23.90
2023-03-31T05:21:48.389Z,23.90
2023-03-31T05:24:42.542Z,23.90
2023-03-31T05:27:37.475Z,24.00
2023-03-31T05:30:31.940Z,24.00
2023-03-31T05:33:26.064Z,24.00
2023-03-31T05:36:20.517Z,24.00
2023-03-31T05:39:14.601Z,23.90
2023-03-31T05:42:09.091Z,23.70
2023-03-31T05:45:03.228Z,23.50
2023-03-31T05:47:57.884Z,23.40
2023-03-31T05:50:52.073Z,23.40
2023-03-31T05:53:46.313Z,23.40
2023-03-31T05:56:40.418Z,23.40
2023-03-31T05:59:36.805Z,23.30
2023-03-31T06:02:31.043Z,23.30
2023-03-31T06:05:27.841Z,23.20
2023-03-31T06:08:22.087Z,23.10
2023-03-31T06:11:21.795Z,23.00
2023-03-31T06:14:15.938Z,23.00
2023-03-31T06:17:10.304Z,23.10
2023-03-31T06:20:19.799Z,23.10
2023-03-31T06:23:20.756Z,23.00
2023-03-31T06:26:19.910Z,23.00
2023-03-31T06:29:14.039Z,22.80
2023-03-31T06:32:08.309Z,22.80
2023-03-31T06:35:02.522Z,22.90
2023-03-31T06:37:56.810Z,22.90
2023-03-31T06:40:51.294Z,22.80
2023-03-31T06:43:45.604Z,22.70
2023-03-31T06:46:39.891Z,22.60
2023-03-31T06:49:34.165Z,22.40
2023-03-31T06:52:28.312Z,22.40
2023-03-31T06:55:22.598Z,22.40
2023-03-31T06:58:16.974Z,22.40
2023-03-31T07:01:12.780Z,22.30
2023-03-31T07:04:07.143Z,22.30
2023-03-31T07:07:02.010Z,22.30
2023-03-31T07:09:56.482Z,22.40
2023-03-31T07:12:51.048Z,22.40
2023-03-31T07:15:46.550Z,22.40
2023-03-31T07:18:46.082Z,22.40
2023-03-31T07:21:40.372Z,22.40
2023-03-31T07:24:34.632Z,22.40
2023-03-31T07:27:28.816Z,22.50
2023-03-31T07:30:24.235Z,22.50
2023-03-31T07:33:18.424Z,22.40
2023-03-31T07:36:14.953Z,22.40
2023-03-31T07:39:09.627Z,22.30
2023-03-31T07:42:03.747Z,22.00
2023-03-31T07:44:58.053Z,21.90
2023-03-31T07:47:52.724Z,21.90
2023-03-31T07:50:47.134Z,21.80
2023-03-31T07:53:41.802Z,21.70
2023-03-31T07:56:36.479Z,21.60
2023-03-31T07:59:31.634Z,21.50
2023-03-31T08:02:26.724Z,21.50
2023-03-31T08:05:22.900Z,21.50
2023-03-31T08:08:17.688Z,21.50
2023-03-31T08:11:12.281Z,21.50
2023-03-31T08:14:07.291Z,21.40
2023-03-31T08:17:02.402Z,21.20
2023-03-31T08:19:59.001Z,21.20
2023-03-31T08:22:55.877Z,21.10
2023-03-31T08:25:50.183Z,21.10
2023-03-31T08:28:45.259Z,21.10
2023-03-31T08:31:40.333Z,21.10
2023-03-31T08:34:34.859Z,21.10
2023-03-31T08:37:29.839Z,20.90
2023-03-31T08:40:28.404Z,20.90
2023-03-31T08:43:31.701Z,20.80
2023-03-31T08:46:29.473Z,20.90
2023-03-31T08:49:25.309Z,20.70
2023-03-31T08:52:29.957Z,20.70
2023-03-31T08:55:46.828Z,20.60
2023-03-31T08:58:53.026Z,20.60
2023-03-31T09:02:03.273Z,20.50
2023-03-31T09:05:16.305Z,20.50
2023-03-31T09:08:35.172Z,20.50
2023-03-31T09:11:55.987Z,20.40
2023-03-31T09:15:03.601Z,20.40
2023-03-31T09:18:03.470Z,20.40
2023-03-31T09:21:05.355Z,20.40
2023-03-31T09:24:18.101Z,20.40
2023-03-31T09:27:14.736Z,20.50
2023-03-31T09:30:31.896Z,20.40
2023-03-31T09:33:34.113Z,20.30
2023-03-31T09:36:29.019Z,20.30
2023-03-31T09:39:23.496Z,20.20
2023-03-31T09:42:17.758Z,20.20
2023-03-31T09:45:21.289Z,20.10
2023-03-31T09:48:21.881Z,20.10
2023-03-31T09:51:27.704Z,20.00
2023-03-31T09:54:25.245Z,20.00
2023-03-31T09:57:33.290Z,20.00
2023-03-31T10:00:29.340Z,19.90
2023-03-31T10:03:24.686Z,20.00
2023-03-31T10:06:20.181Z,19.90
2023-03-31T10:09:14.719Z,19.80
2023-03-31T10:12:16.712Z,19.80
2023-03-31T10:15:29.486Z,19.80
2023-03-31T10:18:34.397Z,19.80
2023-03-31T10:21:37.199Z,19.80
2023-03-31T10:24:47.394Z,19.70
2023-03-31T10:27:45.866Z,19.70
2023-03-31T10:30:41.880Z,19.70
2023-03-31T10:33:40.539Z,19.70
2023-03-31T10:36:36.359Z,19.70
2023-03-31T10:39:34.924Z,19.70
2023-03-31T10:42:30.431Z,19.70
2023-03-31T10:45:38.051Z,19.60
2023-03-31T10:48:42.836Z,19.60
2023-03-31T10:51:38.675Z,19.50
2023-03-31T10:54:34.936Z,19.50
2023-03-31T10:57:47.991Z,19.50
2023-03-31T11:01:00.407Z,19.50
2023-03-31T11:04:11.858Z,19.50
2023-03-31T11:07:34.354Z,19.50
2023-03-31T11:11:03.745Z,19.40
2023-03-31T11:14:35.763Z,19.30
2023-03-31T11:17:48.271Z,19.20
2023-03-31T11:21:12.450Z,19.10
2023-03-31T11:24:44.895Z,19.10
2023-03-31T11:27:57.976Z,19.10
2023-03-31T11:31:15.994Z,19.20
2023-03-31T11:34:30.983Z,19.20
2023-03-31T11:37:54.539Z,19.20
2023-03-31T11:40:52.188Z,19.20
2023-03-31T11:43:54.219Z,19.10
2023-03-31T11:46:54.663Z,19.10
2023-03-31T11:49:59.485Z,19.00
2023-03-31T11:53:07.521Z,19.00
2023-03-31T11:56:04.306Z,19.00
2023-03-31T11:59:01.968Z,18.90
2023-03-31T12:02:05.986Z,18.90
2023-03-31T12:05:01.377Z,18.90
2023-03-31T12:08:14.874Z,18.90
2023-03-31T12:11:20.975Z,18.90
2023-03-31T12:14:44.392Z,18.90
2023-03-31T12:17:42.791Z,18.80
2023-03-31T12:20:41.557Z,18.80
2023-03-31T12:23:42.544Z,18.80
2023-03-31T12:27:05.105Z,18.70
2023-03-31T12:30:11.171Z,18.70
2023-03-31T12:33:15.219Z,18.70
2023-03-31T12:36:10.321Z,18.70
2023-03-31T12:39:10.903Z,18.80
2023-03-31T12:42:42.221Z,18.70
2023-03-31T12:45:45.767Z,18.70
2023-03-31T12:48:58.189Z,18.70
2023-03-31T12:52:11.188Z,18.70
2023-03-31T12:55:12.159Z,18.70
2023-03-31T12:58:32.955Z,18.70
2023-03-31T13:01:28.151Z,18.70
2023-03-31T13:04:29.257Z,18.70
2023-03-31T13:07:29.605Z,18.70
2023-03-31T13:10:32.639Z,18.70
2023-03-31T13:13:27.952Z,18.60
2023-03-31T13:16:23.095Z,18.60
2023-03-31T13:19:37.035Z,18.60
2023-03-31T13:22:33.491Z,18.60
2023-03-31T13:25:50.877Z,18.60
2023-03-31T13:28:46.226Z,18.60
2023-03-31T13:32:02.967Z,18.60
2023-03-31T13:35:18.895Z,18.50
2023-03-31T13:38:25.341Z,18.50
2023-03-31T13:41:40.034Z,18.50
2023-03-31T13:44:34.399Z,18.30
2023-03-31T13:47:57.550Z,18.30
2023-03-31T13:50:57.689Z,18.30
2023-03-31T13:54:25.857Z,18.20
2023-03-31T13:57:56.821Z,18.20
2023-03-31T14:01:38.654Z,18.10
2023-03-31T14:05:01.724Z,18.00
2023-03-31T14:08:21.151Z,18.00
2023-03-31T14:11:30.310Z,17.90
2023-03-31T14:14:26.403Z,17.90
2023-03-31T14:17:29.249Z,17.90
2023-03-31T14:20:38.763Z,17.80
2023-03-31T14:23:51.382Z,17.80
2023-03-31T14:27:03.644Z,17.80
2023-03-31T14:30:01.138Z,17.80
2023-03-31T14:33:10.711Z,17.70
2023-03-31T14:36:17.905Z,17.70
2023-03-31T14:39:13.810Z,17.70
2023-03-31T14:42:15.967Z,17.70
2023-03-31T14:45:26.049Z,17.70
2023-03-31T14:48:20.407Z,17.60
2023-03-31T14:51:17.346Z,17.60
2023-03-31T14:54:19.557Z,17.60
2023-03-31T14:57:25.250Z,17.60
2023-03-31T15:00:29.790Z,17.50
2023-03-31T15:03:24.192Z,17.40
2023-03-31T15:06:18.386Z,17.30
2023-03-31T15:09:28.384Z,17.20
2023-03-31T15:12:24.705Z,17.00
2023-03-31T15:15:25.613Z,16.90
2023-03-31T15:18:20.548Z,16.80
2023-03-31T15:21:26.224Z,16.80
2023-03-31T15:24:21.183Z,16.80
2023-03-31T15:27:37.128Z,16.80
2023-03-31T15:30:32.281Z,16.80
2023-03-31T15:33:38.004Z,16.80
2023-03-31T15:36:33.088Z,16.80
2023-03-31T15:39:30.016Z,16.70
2023-03-31T15:42:24.348Z,16.70
2023-03-31T15:45:46.228Z,16.80
2023-03-31T15:48:55.381Z,16.80
2023-03-31T15:51:49.966Z,16.90
2023-03-31T15:54:44.595Z,16.80
2023-03-31T15:57:38.731Z,16.80
2023-03-31T16:00:44.382Z,16.80
2023-03-31T16:03:39.806Z,16.80
2023-03-31T16:06:49.161Z,16.80
2023-03-31T16:10:10.625Z,16.80
2023-03-31T16:13:10.978Z,16.80
2023-03-31T16:16:12.029Z,16.80
2023-03-31T16:19:11.281Z,16.80
2023-03-31T16:22:06.107Z,16.90
2023-03-31T16:25:00.570Z,16.90
2023-03-31T16:28:01.653Z,16.90
2023-03-31T16:30:56.309Z,17.00
2023-03-31T16:33:58.886Z,17.00
2023-03-31T16:36:52.982Z,17.10
2023-03-31T16:39:47.308Z,17.10
2023-03-31T16:42:41.488Z,17.20
2023-03-31T16:45:36.013Z,17.20
2023-03-31T16:48:36.211Z,17.10
2023-03-31T16:51:30.396Z,17.10
2023-03-31T16:54:24.636Z,17.00
2023-03-31T16:57:18.843Z,17.00
2023-03-31T17:00:14.437Z,16.90
2023-03-31T17:03:10.230Z,16.80
2023-03-31T17:06:10.000Z,16.80
2023-03-31T17:09:04.728Z,16.80
2023-03-31T17:11:58.912Z,16.80
2023-03-31T17:14:53.342Z,16.80
2023-03-31T17:17:47.572Z,16.80
2023-03-31T17:20:42.065Z,16.80
2023-03-31T17:23:37.540Z,16.90
2023-03-31T17:26:31.984Z,16.90
2023-03-31T17:29:26.265Z,16.90
2023-03-31T17:32:20.556Z,16.90
2023-03-31T17:35:21.620Z,17.00
2023-03-31T17:38:15.923Z,17.00
2023-03-31T17:41:13.869Z,17.00
2023-03-31T17:44:09.873Z,17.00
2023-03-31T17:47:03.969Z,17.10
2023-03-31T17:49:58.108Z,17.20
2023-03-31T17:52:52.873Z,17.20
2023-03-31T17:55:47.164Z,17.20
2023-03-31T17:58:41.533Z,17.30
2023-03-31T18:01:38.309Z,17.20
2023-03-31T18:04:32.728Z,17.20
2023-03-31T18:07:30.208Z,17.10
2023-03-31T18:10:24.370Z,17.00
2023-03-31T18:13:18.658Z,17.00
2023-03-31T18:16:14.158Z,17.00
2023-03-31T18:19:08.543Z,17.00
2023-03-31T18:22:02.648Z,17.10
2023-03-31T18:24:56.943Z,17.10
2023-03-31T18:27:51.075Z,17.00
2023-03-31T18:30:46.130Z,16.90
2023-03-31T18:33:41.323Z,16.90
2023-03-31T18:36:35.958Z,16.90
2023-03-31T18:39:30.102Z,16.90
2023-03-31T18:42:26.897Z,16.80
2023-03-31T18:45:21.062Z,16.70
2023-03-31T18:48:15.883Z,16.60
2023-03-31T18:51:10.706Z,16.60
2023-03-31T18:54:05.421Z,16.60
2023-03-31T18:56:59.749Z,16.70
2023-03-31T18:59:53.929Z,16.80
2023-03-31T19:02:48.656Z,16.80
2023-03-31T19:05:42.914Z,16.80
2023-03-31T19:08:37.410Z,16.90
2023-03-31T19:11:32.153Z,16.80
2023-03-31T19:14:26.332Z,16.80
2023-03-31T19:17:21.136Z,16.80
2023-03-31T19:20:18.637Z,16.80
2023-03-31T19:23:13.401Z,16.80
2023-03-31T19:26:08.741Z,16.80
2023-03-31T19:29:04.346Z,16.80
2023-03-31T19:31:58.557Z,16.70
2023-03-31T19:34:53.880Z,16.70
2023-03-31T19:37:49.850Z,16.80
2023-03-31T19:40:45.078Z,16.80
2023-03-31T19:43:39.267Z,16.90
2023-03-31T19:46:33.672Z,16.90
2023-03-31T19:49:28.315Z,16.90
2023-03-31T19:52:22.808Z,16.90
2023-03-31T19:55:17.594Z,16.80
2023-03-31T19:58:12.286Z,16.70
2023-03-31T20:01:15.106Z,16.60
2023-03-31T20:04:09.798Z,16.60
2023-03-31T20:07:05.942Z,16.60
2023-03-31T20:10:00.504Z,16.50
2023-03-31T20:12:54.948Z,16.50
2023-03-31T20:15:49.622Z,16.40
2023-03-31T20:18:49.352Z,16.40
2023-03-31T20:21:44.350Z,16.40
2023-03-31T20:24:40.202Z,16.40
2023-03-31T20:27:35.046Z,16.40
2023-03-31T20:30:29.271Z,16.30
2023-03-31T20:33:27.657Z,16.20
2023-03-31T20:36:25.062Z,16.10
2023-03-31T20:39:20.101Z,16.00
2023-03-31T20:42:14.296Z,16.00
2023-03-31T20:45:09.858Z,16.10
2023-03-31T20:48:04.624Z,16.10
2023-03-31T20:50:59.715Z,16.10
2023-03-31T20:53:55.414Z,16.10
2023-03-31T20:56:50.812Z,16.10
2023-03-31T20:59:45.163Z,16.20
2023-03-31T21:02:39.850Z,16.30
2023-03-31T21:05:34.142Z,16.30
2023-03-31T21:08:28.517Z,16.40
2023-03-31T21:11:23.867Z,16.40
2023-03-31T21:14:19.175Z,16.50
2023-03-31T21:17:13.458Z,16.50
2023-03-31T21:20:08.880Z,16.50
2023-03-31T21:23:03.979Z,16.50
2023-03-31T21:26:00.297Z,16.50
2023-03-31T21:28:57.855Z,16.60
2023-03-31T21:31:52.000Z,16.60
2023-03-31T21:34:46.378Z,16.60
2023-03-31T21:37:40.624Z,16.70
2023-03-31T21:40:37.287Z,16.80
2023-03-31T21:43:31.623Z,16.80
2023-03-31T21:46:28.914Z,16.80
2023-03-31T21:49:23.163Z,16.90
2023-03-31T21:52:17.275Z,16.90
2023-03-31T21:55:11.654Z,16.90
2023-03-31T21:58:07.291Z,16.90
2023-03-31T22:01:05.424Z,16.90
2023-03-31T22:04:01.051Z,16.90
2023-03-31T22:06:55.746Z,16.90
2023-03-31T22:09:50.882Z,17.00
2023-03-31T22:12:47.260Z,17.00
2023-03-31T22:15:45.758Z,16.90
2023-03-31T22:18:40.258Z,17.00
2023-03-31T22:21:36.149Z,17.10
2023-03-31T22:24:31.191Z,17.10
2023-03-31T22:27:26.093Z,17.20
2023-03-31T22:30:23.592Z,17.10
2023-03-31T22:33:18.076Z,17.10
2023-03-31T22:36:13.186Z,17.10
2023-03-31T22:39:09.366Z,17.10
2023-03-31T22:42:04.854Z,17.30
2023-03-31T22:44:59.447Z,17.50
2023-03-31T22:47:54.083Z,17.60
2023-03-31T22:50:50.358Z,17.70
2023-03-31T22:53:46.166Z,17.70
2023-03-31T22:56:40.345Z,17.90
2023-03-31T22:59:34.802Z,18.00
2023-03-31T23:02:29.068Z,18.00
2023-03-31T23:05:25.438Z,18.00
2023-03-31T23:08:19.685Z,18.10
2023-03-31T23:11:16.083Z,18.20
2023-03-31T23:14:11.122Z,18.30
2023-03-31T23:17:05.420Z,18.50
2023-03-31T23:20:00.331Z,18.60
2023-03-31T23:22:54.646Z,19.00
2023-03-31T23:25:48.948Z,19.20
2023-03-31T23:28:43.845Z,19.60
2023-03-31T23:31:38.129Z,19.70
2023-03-31T23:34:32.765Z,19.60
2023-03-31T23:37:27.607Z,19.60
2023-03-31T23:40:21.773Z,19.60
2023-03-31T23:43:16.134Z,19.40
2023-03-31T23:46:10.957Z,19.40
2023-03-31T23:49:06.192Z,19.40
2023-03-31T23:52:00.419Z,19.30
2023-03-31T23:54:54.619Z,19.20
2023-03-31T23:57:48.822Z,19.10
